URWW Airport Information

Runway Information
Runway 08 Length 1595 ft width 350 ft
Elevation 0 ft Threshold 0 ft Heading 84
Runway 26 Length 1595 ft Width 350 ft
Elevation 0 ft Threshold 0 ft Heading 264
Runway 11 Length 8101 ft width 161 ft
Elevation 430 ft Threshold 0 ft Heading 120
Runway 29 Length 8101 ft Width 161 ft
Elevation 482 ft Threshold 0 ft Heading 300
Runway 11R Length 5575 ft width 330 ft
Elevation 0 ft Threshold 0 ft Heading 120
Runway 29L Length 5575 ft Width 330 ft
Elevation 0 ft Threshold 0 ft Heading 300
Airport Frequencies
Type APP Name VOLGOGRAD Frequency 125.3 MHZ
Type ATIS Name VOLOGRAD A Frequency 132.8 MHZ
Type GCA Name GCA Frequency 128 MHZ
Type GND Name GND Frequency 119 MHZ
Type RDR Name ASR Frequency 122 MHZ
Type TWR Name TWR Frequency 128 MHZ
Airport Navaids
Type NDB Name Gumrak Frequency 325 KHZ
Type NDB Name Gumrak Frequency 325 KHZ
Airport Weather Information & NOTAM
ADDS - METARS form results

(2223 UTC 10 December 2019)
Data provider http://aviationweather.gov/metar/data/
 
METAR text: URWW 102200Z VRB01MPS 1100 0650NE R06/2000U FG VV002 01/01 Q1022 R06/290060 TEMPO 0200 FG RMK OBST OBSC
Conditions at: URWW (VOLGOGRAD/GUMRAK, RU) observed 2200 UTC 10 December 2019
Temperature: 1.0°C (34°F)
Dewpoint: 1.0°C (34°F) [RH = 100%]
Pressure (altimeter): 30.18 inches Hg (1022.0 mb)
Winds: variable direction winds at 2 MPH (2 knots; 1.0 m/s)
Visibility: 0.68 miles (1.09 km)
Ceiling: indefinite ceiling with vertical visibility of 200 feet AGL
Clouds: obscured sky
Weather: FG  (fog)

METAR text: URWW 102130Z 00000MPS 0650 0600SW R06/1300D FG VV002 01/01 Q1022 R06/290060 TEMPO 0300 FG RMK QBB060 OBST OBSC
Conditions at: URWW (VOLGOGRAD/GUMRAK, RU) observed 2130 UTC 10 December 2019
Temperature: 1.0°C (34°F)
Dewpoint: 1.0°C (34°F) [RH = 100%]
Pressure (altimeter): 30.18 inches Hg (1022.0 mb)
Winds: calm
Visibility: 0.40 miles (0.64 km)
Ceiling: indefinite ceiling with vertical visibility of 200 feet AGL
Clouds: obscured sky
Weather: FG  (fog)

Forecast for: URWW (VOLGOGRAD/GUMRAK, RU)
Text: TAF URWW 101959Z 1021/1106 15003MPS 0200 FZFG OVC002
Forecast period: 2100 UTC 10 December 2019 to 0600 UTC 11 December 2019
Forecast type: FROM: standard forecast or significant change
Winds: from the SSE (150 degrees) at 7 MPH (6 knots; 3.1 m/s)
Visibility: 0.12 miles (0.19 km)
Ceiling: 200 feet AGL
Clouds: overcast cloud deck at 200 feet AGL
Weather: FZFG  (freezing fog)
Text: TEMPO 1021/1106 20003MPS 1000 -FZDZ BR OVC003
Forecast period: 2100 UTC 10 December 2019 to 0600 UTC 11 December 2019
Forecast type: TEMPORARY: The following changes expected for less than half the time period
Winds: from the SSW (200 degrees) at 7 MPH (6 knots; 3.1 m/s)
Visibility: 0.62 miles (1.00 km)
Ceiling: 300 feet AGL
Clouds: overcast cloud deck at 300 feet AGL
Weather: -FZDZ BR  (light freezing drizzle, mist)